Time;durP1;ratioP1;P1;durP2;ratioP2;P2;SDS_P1;SDS_P2;PMS_P1;PMS_P2;Temp;Humidity;BMP_temperature;BMP_pressure;BME280_temperature;BME280_humidity;BME280_pressure;Samples;Min_cycle;Max_cycle;Signal;HPM_P1;HPM_P2
2022/06/11 00:00:40;;;;;;;;;;;;;;;;;;;;;
2022/06/11 00:13:20;;;;;;;;;;;;;;;;;;;;;
2022/06/11 00:17:14;;;;;;;;;;;;;;;;;;;;;
2022/06/11 00:20:39;;;;;;;2.87;1.67;;;;;;;22.93;53.77;100617.47;1595688;120;26143;-76
2022/06/11 00:24:51;;;;;;;1.98;1.60;;;;;;;22.99;53.67;100621.31;1579158;123;25885;-75
2022/06/11 00:28:58;;;;;;;;;;;;;;;;;;;;;
2022/06/11 00:32:55;;;;;;;;;;;;;;;;;;;;;
2022/06/11 00:36:46;;;;;;;;;;;;;;;;;;;;;
2022/06/11 00:40:35;;;;;;;;;;;;;;;;;;;;;
2022/06/11 00:44:26;;;;;;;3.02;1.82;;;;;;;22.82;53.47;100633.64;1805643;106;25848;-76
2022/06/11 00:48:55;;;;;;;;;;;;;;;;;;;;;
2022/06/11 00:52:43;;;;;;;1.70;1.55;;;;;;;22.76;53.35;100641.75;1877725;102;29238;-76
2022/06/11 00:56:53;;;;;;;2.73;1.43;;;;;;;22.76;53.35;100644.41;1915642;100;25884;-76
2022/06/11 01:00:43;;;;;;;1.80;1.40;;;;;;;22.76;53.35;100644.41;1889974;103;25768;-78
2022/06/11 01:09:32;;;;;;;2.92;1.62;;;;;;;22.61;53.33;100644.27;1939736;99;25951;-82
2022/06/11 01:14:10;;;;;;;3.22;1.92;;;;;;;22.46;53.43;100639.30;1940137;100;25864;-75
2022/06/11 01:18:06;;;;;;;1.55;1.40;;;;;;;22.29;53.63;100628.57;1942257;100;25811;-75
2022/06/11 01:21:56;;;;;;;;;;;;;;;;;;;;;
2022/06/11 01:30:57;;;;;;;;;;;;;;;;;;;;;
2022/06/11 01:35:12;;;;;;;5.10;1.45;;;;;;;21.96;54.18;100621.25;1946642;100;25816;-75
2022/06/11 01:47:36;;;;;;;1.32;1.17;;;;;;;21.73;54.56;100614.59;1763237;109;25861;-76
2022/06/11 01:51:56;;;;;;;1.87;1.67;;;;;;;21.62;54.64;100610.81;1710124;110;26230;-75
2022/06/11 02:13:19;;;;;;;;;;;;;;;;;;;;;
2022/06/11 02:19:08;;;;;;;3.62;1.02;;;;;;;21.41;54.31;100621.81;1698640;114;25901;-75
2022/06/11 02:28:22;;;;;;;;;;;;;;;;;;;;;
2022/06/11 02:32:28;;;;;;;;;;;;;;;;;;;;;
2022/06/11 02:41:52;;;;;;;1.10;1.00;;;;;;;21.07;53.93;100619.69;1677020;115;26069;-81
2022/06/11 02:54:16;;;;;;;0.90;0.90;;;;;;;20.87;53.76;100622.63;1669129;116;25892;-76
2022/06/11 02:58:38;;;;;;;;;;;;;;;;;;;;;
2022/06/11 03:01:57;;;;;;;4.03;1.17;;;;;;;20.82;53.79;100624.46;1660997;116;25869;-75
2022/06/11 03:10:25;;;;;;;1.60;0.87;;;;;;;20.79;53.85;100620.98;1676588;115;25969;-77
2022/06/11 03:22:11;;;;;;;;;;;;;;;;;;;;;
2022/06/11 03:33:01;;;;;;;;;;;;;;;;;;;;;
2022/06/11 03:39:06;;;;;;;1.55;0.88;;;;;;;20.69;53.62;100618.94;1519643;128;25977;-77
2022/06/11 04:01:31;;;;;;;2.10;0.75;;;;;;;20.88;53.38;100634.97;1580326;122;25921;-75
2022/06/11 04:18:47;;;;;;;;;;;;;;;;;;;;;
2022/06/11 04:27:01;;;;;;;0.78;0.78;;;;;;;21.26;52.10;100636.61;1661241;117;26062;-77
2022/06/11 04:46:01;;;;;;;;;;;;;;;;;;;;;
2022/06/11 05:13:56;;;;;;;0.62;0.50;;;;;;;21.49;51.02;100655.70;1619226;120;26004;-80
2022/06/11 05:26:35;;;;;;;;;;;;;;;;;;;;;
2022/06/11 05:38:09;;;;;;;0.95;0.50;;;;;;;22.39;50.01;100667.78;1639764;117;26124;-75
2022/06/11 05:42:14;;;;;;;;;;;;;;;;;;;;;
2022/06/11 05:46:35;;;;;;;1.22;0.70;;;;;;;22.82;49.60;100673.05;1677941;114;25912;-76
2022/06/11 05:51:31;;;;;;;;;;;;;;;;;;;;;
2022/06/11 05:55:29;;;;;;;1.60;0.70;;;;;;;23.24;48.64;100676.11;1667979;115;25962;-77
2022/06/11 05:59:29;;;;;;;3.72;1.22;;;;;;;23.54;48.57;100686.00;1684009;115;25856;-80
2022/06/11 06:07:46;;;;;;;2.52;1.57;;;;;;;24.10;47.71;100692.14;1681951;115;25951;-78
2022/06/11 06:11:41;;;;;;;;;;;;;;;;;;;;;
2022/06/11 06:15:38;;;;;;;;;;;;;;;;;;;;;
2022/06/11 06:19:43;;;;;;;;;;;;;;;;;;;;;
2022/06/11 06:23:26;;;;;;;2.42;0.95;;;;;;;25.12;45.85;100710.97;1729153;112;25501;-75
2022/06/11 06:35:24;;;;;;;4.08;1.40;;;;;;;25.78;44.67;100714.13;1718781;113;26434;-75
2022/06/11 06:39:07;;;;;;;2.92;1.15;;;;;;;26.00;44.10;100713.45;1652585;114;25986;-79
2022/06/11 06:42:52;;;;;;;1.50;1.40;;;;;;;26.26;44.12;100710.72;1647855;118;25972;-76
2022/06/11 06:46:28;;;;;;;1.47;1.10;;;;;;;26.59;43.85;100714.44;1667080;117;25956;-81
2022/06/11 06:50:05;;;;;;;1.80;0.90;;;;;;;27.00;43.75;100718.66;1666345;116;25621;-78
2022/06/11 06:53:50;;;;;;;4.10;1.80;;;;;;;27.27;43.14;100724.31;1660494;118;25897;-77
2022/06/11 06:57:30;;;;;;;;;;;;;;;;;;;;;
2022/06/11 07:01:08;;;;;;;2.85;0.90;;;;;;;27.47;41.59;100725.28;1691437;114;25985;-79
2022/06/11 07:10:00;;;;;;;6.37;0.93;;;;;;;27.78;41.07;100725.80;1664210;117;26050;-77
2022/06/11 07:13:24;;;;;;;3.60;2.08;;;;;;;28.10;40.38;100741.43;1696949;115;25899;-77
2022/06/11 07:16:58;;;;;;;3.47;1.10;;;;;;;28.17;39.73;100742.90;1698465;115;26354;-75
2022/06/11 07:24:49;;;;;;;;;;;;;;;;;;;;;
2022/06/11 07:41:30;;;;;;;;;;;;;;;;;;;;;
2022/06/11 07:50:28;;;;;;;3.45;1.90;;;;;;;29.94;36.38;100744.91;1703714;112;26471;-76
2022/06/11 07:54:36;;;;;;;;;;;;;;;;;;;;;
2022/06/11 07:58:44;;;;;;;3.15;1.15;;;;;;;29.58;35.79;100747.12;1674519;114;26217;-76
2022/06/11 08:02:49;;;;;;;;;;;;;;;;;;;;;
2022/06/11 08:06:18;;;;;;;3.85;0.98;;;;;;;29.35;35.34;100754.48;1649768;116;26246;-77
2022/06/11 08:15:27;;;;;;;2.87;0.53;;;;;;;30.07;35.06;100748.67;1689215;113;25862;-83
2022/06/11 08:20:05;;;;;;;5.12;0.72;;;;;;;30.64;34.56;100744.36;1697390;112;26008;-77
2022/06/11 08:42:27;;;;;;;1.15;0.70;;;;;;;31.55;32.78;100734.33;1699059;113;26067;-78
2022/06/11 08:58:32;;;;;;;;;;;;;;;;;;;;;
2022/06/11 09:07:37;;;;;;;2.02;0.60;;;;;;;32.34;30.60;100730.07;2265128;84;26066;-80
2022/06/11 09:11:29;;;;;;;0.53;0.50;;;;;;;32.82;30.70;100721.22;2233967;86;25927;-82
2022/06/11 09:20:27;;;;;;;1.65;0.50;;;;;;;33.40;29.16;100719.28;2124802;91;26042;-77
2022/06/11 09:24:36;;;;;;;1.62;0.50;;;;;;;33.96;28.43;100713.74;2059279;93;25927;-80
2022/06/11 09:33:41;;;;;;;0.95;0.42;;;;;;;34.57;27.03;100709.97;1992086;96;25874;-80
2022/06/11 09:38:07;;;;;;;3.17;0.70;;;;;;;35.05;26.24;100700.13;1975955;97;25799;-78
2022/06/11 09:51:16;;;;;;;1.62;0.60;;;;;;;36.01;24.70;100707.38;1974420;98;25884;-74
2022/06/11 10:04:03;;;;;;;2.80;0.60;;;;;;;34.93;24.72;100707.77;1917277;101;25957;-73
2022/06/11 10:07:49;;;;;;;1.30;0.40;;;;;;;34.81;24.34;100704.63;1872184;102;25425;-73
2022/06/11 10:11:44;;;;;;;;;;;;;;;;;;;;;
2022/06/11 10:15:39;;;;;;;10.43;0.60;;;;;;;34.57;23.16;100700.50;1876241;99;25546;-83
2022/06/11 10:20:18;;;;;;;1.47;0.65;;;;;;;34.41;24.54;100693.92;1942697;99;25809;-74
2022/06/11 10:24:19;;;;;;;3.75;0.60;;;;;;;34.04;25.31;100696.02;1897325;101;25847;-75
2022/06/11 10:28:13;;;;;;;1.25;1.05;;;;;;;33.97;25.52;100689.77;1819821;106;26435;-76
2022/06/11 10:32:54;;;;;;;2.22;0.70;;;;;;;33.85;25.29;100691.47;1810406;107;25891;-82
2022/06/11 10:37:19;;;;;;;;;;;;;;;;;;;;;
2022/06/11 10:40:51;;;;;;;5.87;0.50;;;;;;;33.82;25.27;100691.22;1810697;106;25865;-81
2022/06/11 10:44:31;;;;;;;;;;;;;;;33.75;25.55;100684.96;1823294;105;25949;-86
2022/06/11 11:16:39;;;;;;;2.58;1.40;;;;;;;33.09;29.66;100659.66;1716662;112;26430;-80
2022/06/11 11:21:03;;;;;;;;;;;;;;;;;;;;;
2022/06/11 11:25:30;;;;;;;;;;;;;;;;;;;;;
2022/06/11 11:29:42;;;;;;;3.83;0.80;;;;;;;32.39;28.79;100643.42;1704889;112;25776;-88
2022/06/11 11:33:30;;;;;;;0.75;0.50;;;;;;;32.21;29.18;100646.80;1772677;108;25942;-83
2022/06/11 11:37:17;;;;;;;1.02;0.60;;;;;;;32.18;28.85;100641.59;1822035;104;25868;-80
2022/06/11 11:41:03;;;;;;;1.12;0.40;;;;;;;32.54;27.47;100637.09;1880625;103;25796;-78
2022/06/11 11:44:59;;;;;;;3.33;0.40;;;;;;;32.67;26.77;100638.49;1879010;103;25951;-81
2022/06/11 11:52:36;;;;;;;0.53;0.37;;;;;;;33.23;26.02;100639.33;1820812;105;26193;-79
2022/06/11 12:01:20;;;;;;;2.17;0.40;;;;;;;33.61;26.14;100646.70;1893995;103;25781;-78
2022/06/11 12:05:21;;;;;;;;;;;;;;;;;;;;;
2022/06/11 12:08:49;;;;;;;4.58;0.82;;;;;;;33.96;25.54;100636.64;1932962;100;26095;-79
2022/06/11 12:12:44;;;;;;;2.15;0.55;;;;;;;34.05;25.68;100639.61;1924242;100;26756;-79
2022/06/11 12:16:08;;;;;;;2.15;0.55;;;;;;;34.17;25.42;100639.20;1924202;100;25859;-80
2022/06/11 12:19:36;;;;;;;0.60;0.60;;;;;;;34.23;25.61;100634.72;1920840;100;26383;-78
2022/06/11 12:23:47;;;;;;;1.32;0.53;;;;;;;34.33;25.67;100638.13;1924153;100;25874;-77
2022/06/11 12:40:29;;;;;;;1.80;0.60;;;;;;;34.57;25.46;100642.28;1878324;104;26609;-76
2022/06/11 12:45:06;;;;;;;2.55;0.50;;;;;;;34.79;25.20;100641.92;1860694;106;26018;-78
2022/06/11 12:49:07;;;;;;;0.70;0.50;;;;;;;34.87;25.27;100635.09;1905188;100;25944;-79
2022/06/11 12:53:28;;;;;;;4.62;0.60;;;;;;;35.01;25.14;100641.70;1952484;98;25863;-77
2022/06/11 12:57:38;;;;;;;4.20;0.65;;;;;;;35.10;25.04;100646.94;1978252;98;25374;-79
2022/06/11 13:01:34;;;;;;;4.35;0.57;;;;;;;35.14;24.97;100634.41;1918935;100;25831;-77
2022/06/11 13:05:44;;;;;;;1.60;0.60;;;;;;;35.29;24.85;100638.30;1949330;97;25812;-80
2022/06/11 13:10:00;;;;;;;;;;;;;;;;;;;;;
2022/06/11 13:14:14;;;;;;;0.88;0.62;;;;;;;35.33;24.23;100633.86;1989793;97;25923;-78
2022/06/11 13:18:10;;;;;;;0.90;0.65;;;;;;;35.31;24.00;100634.48;1957075;94;25882;-75
2022/06/11 13:22:14;;;;;;;1.30;0.70;;;;;;;35.01;24.27;100626.80;2020299;96;25809;-77
2022/06/11 13:26:03;;;;;;;1.25;0.40;;;;;;;35.04;24.63;100623.03;2050436;94;25933;-76
2022/06/11 13:34:17;;;;;;;;;;;;;;;35.07;24.34;100616.00;1982585;95;25374;-79
2022/06/11 13:38:06;;;;;;;0.72;0.50;;;;;;;34.94;23.71;100613.34;1965200;98;25944;-77
2022/06/11 13:42:23;;;;;;;1.75;0.80;;;;;;;34.85;24.32;100611.31;1887043;102;26151;-76
2022/06/11 13:46:47;;;;;;;;;;;;;;;;;;;;;
2022/06/11 14:04:16;;;;;;;;;;;;;;;;;;;;;
2022/06/11 14:07:46;;;;;;;0.75;0.50;;;;;;;32.90;25.43;100587.90;1831234;104;25895;-79
2022/06/11 14:11:54;;;;;;;6.40;1.42;;;;;;;32.51;25.80;100590.55;1842184;104;25910;-77
2022/06/11 14:20:06;;;;;;;2.92;0.65;;;;;;;32.02;26.15;100589.57;1786766;108;25946;-75
2022/06/11 14:23:51;;;;;;;1.10;0.70;;;;;;;31.75;26.40;100585.76;;;;
2022/06/11 14:27:47;;;;;;;2.77;0.53;;;;;;;31.58;26.51;100582.37;1766486;108;26014;-77
2022/06/11 14:31:38;;;;;;;4.87;0.60;;;;;;;31.42;26.72;100579.73;1782968;108;26118;-79
2022/06/11 14:35:34;;;;;;;5.47;1.25;;;;;;;31.35;26.97;100582.41;1738998;111;25871;-78
2022/06/11 14:39:31;;;;;;;0.95;0.50;;;;;;;31.27;27.24;100576.97;1777172;109;25914;-79
2022/06/11 14:43:41;;;;;;;2.02;0.80;;;;;;;31.21;27.20;100573.77;1780797;105;27042;-76
2022/06/11 14:47:51;;;;;;;5.62;0.70;;;;;;;31.10;27.40;100568.16;1794108;109;25812;-81
2022/06/11 14:51:45;;;;;;;2.98;0.70;;;;;;;30.97;27.57;100575.59;1897463;97;25826;-81
2022/06/11 14:55:44;;;;;;;;;;;;;;;;;;;;;
2022/06/11 15:00:00;;;;;;;1.10;0.70;;;;;;;30.79;27.61;100568.61;1843273;105;26062;-77
2022/06/11 15:04:32;;;;;;;6.92;0.72;;;;;;;30.55;27.64;100566.81;1839285;105;25859;-76
2022/06/11 15:08:52;;;;;;;4.28;0.80;;;;;;;30.35;27.80;100565.24;1843942;105;25838;-75
2022/06/11 15:12:57;;;;;;;2.00;0.80;;;;;;;30.13;27.79;100553.41;1865906;104;25888;-84
2022/06/11 15:20:44;;;;;;;1.75;0.90;;;;;;;29.77;28.34;100551.80;1792682;107;25990;-78
2022/06/11 15:24:59;;;;;;;5.87;0.78;;;;;;;29.59;28.62;100546.90;1780518;109;25883;-80
2022/06/11 15:29:26;;;;;;;;;;;;;;;;;;;;;
2022/06/11 15:33:17;;;;;;;3.80;0.98;;;;;;;29.32;29.03;100549.66;1712882;113;26194;-75
2022/06/11 15:37:27;;;;;;;;;;;;;;;;;;;;;
2022/06/11 15:46:16;;;;;;;4.65;0.95;;;;;;;28.88;30.01;100548.73;1692573;114;25804;-79
2022/06/11 15:50:11;;;;;;;4.30;0.60;;;;;;;28.70;30.38;100544.67;1731600;109;26484;-78
2022/06/11 15:57:49;;;;;;;3.77;0.75;;;;;;;28.59;30.55;100533.61;1878695;102;25874;-75
2022/06/11 16:02:07;;;;;;;;;;;;;;;;;;;;;
2022/06/11 16:10:26;;;;;;;3.08;0.70;;;;;;;28.37;30.98;100534.20;1809657;105;26566;-76
2022/06/11 16:14:36;;;;;;;4.65;0.62;;;;;;;28.33;31.09;100535.30;1793100;106;25832;-79
2022/06/11 16:18:26;;;;;;;0.93;0.68;;;;;;;28.23;31.30;100529.50;1781295;106;26066;-76
2022/06/11 16:27:11;;;;;;;;;;;;;;;;;;;;;
2022/06/11 16:34:33;;;;;;;3.25;0.98;;;;;;;27.87;32.01;100528.05;1841598;105;25830;-77
2022/06/11 16:38:44;;;;;;;2.40;0.88;;;;;;;27.78;32.14;100530.23;1842153;105;25864;-76
2022/06/11 16:46:23;;;;;;;2.37;0.70;;;;;;;27.65;32.62;100527.67;1888475;101;25813;-76
2022/06/11 16:59:11;;;;;;;3.60;0.60;;;;;;;27.46;32.99;100528.08;1793210;106;25924;-77
2022/06/11 17:07:24;;;;;;;1.00;0.45;;;;;;;27.27;33.22;100525.33;1860993;104;25939;-76
2022/06/11 17:11:20;;;;;;;;;;;;;;;;;;;;;
2022/06/11 17:15:02;;;;;;;1.30;0.70;;;;;;;27.09;33.53;100531.84;1899101;102;25928;-80
2022/06/11 17:19:10;;;;;;;3.98;1.07;;;;;;;27.05;33.77;100527.56;1880632;102;25801;-77
2022/06/11 17:22:53;;;;;;;2.47;0.60;;;;;;;26.92;33.83;100527.67;1879217;103;25844;-77
2022/06/11 17:26:31;;;;;;;1.47;0.70;;;;;;;26.89;33.90;100533.61;1870728;103;25840;-75
2022/06/11 17:30:22;;;;;;;3.30;0.68;;;;;;;26.87;33.93;100537.70;1910177;102;25761;-81
2022/06/11 17:38:26;;;;;;;2.55;0.88;;;;;;;26.74;34.35;100549.37;1819685;106;25842;-77
2022/06/11 17:42:15;;;;;;;2.42;0.90;;;;;;;26.78;34.45;100538.95;1808603;106;25914;-76
2022/06/11 17:45:35;;;;;;;2.70;0.70;;;;;;;26.77;34.52;100545.23;1762610;108;25958;-77
2022/06/11 17:49:16;;;;;;;2.90;0.90;;;;;;;26.73;34.54;100538.28;1715108;112;26034;-75
2022/06/11 17:52:52;;;;;;;2.17;0.70;;;;;;;26.70;34.63;100546.89;1739924;110;25966;-78
2022/06/11 17:56:41;;;;;;;4.05;0.95;;;;;;;26.63;34.83;100546.71;1797153;108;26468;-79
2022/06/11 18:00:21;;;;;;;3.67;1.02;;;;;;;26.57;35.02;100547.38;1829983;105;25739;-76
2022/06/11 18:04:02;;;;;;;4.00;0.82;;;;;;;26.50;35.18;100543.69;1770062;109;25870;-76
2022/06/11 18:07:52;;;;;;;4.28;0.90;;;;;;;26.43;35.44;100543.49;1836559;105;25901;-78
2022/06/11 18:11:27;;;;;;;;;;;;;;;26.35;35.51;100549.98;1814406;106;25853;-79
2022/06/11 18:15:10;;;;;;;3.20;1.00;;;;;;;26.26;35.70;100551.70;1810997;104;25995;-77
2022/06/11 18:18:52;;;;;;;1.75;1.00;;;;;;;26.12;35.83;100548.66;1841782;105;26076;-78
2022/06/11 18:31:18;;;;;;;2.27;1.50;;;;;;;25.94;36.49;100553.38;1836894;106;25768;-77
2022/06/11 18:34:51;;;;;;;3.50;1.47;;;;;;;25.83;36.74;100563.99;1874685;104;25439;-81
2022/06/11 18:38:19;;;;;;;4.62;1.25;;;;;;;25.74;36.89;100569.63;1886845;101;25880;-79
2022/06/11 18:49:52;;;;;;;;;;;;;;;;;;;;;
2022/06/11 18:53:40;;;;;;;5.10;1.52;;;;;;;25.36;37.88;100570.52;1805037;104;25966;-76
2022/06/11 19:02:22;;;;;;;;;;;;;;;;;;;;;
2022/06/11 19:14:53;;;;;;;4.67;1.30;;;;;;;24.82;39.18;100599.87;1881272;104;25902;-79
2022/06/11 19:18:24;;;;;;;4.95;1.42;;;;;;;24.72;39.38;100608.62;1882019;102;26151;-77
2022/06/11 19:22:42;;;;;;;4.72;1.27;;;;;;;24.65;39.55;100611.07;1879753;100;25894;-80
2022/06/11 19:26:26;;;;;;;5.22;1.70;;;;;;;24.58;39.88;100621.52;1897679;103;25906;-82
2022/06/11 19:30:38;;;;;;;;;;;;;;;;;;;;;
2022/06/11 19:34:10;;;;;;;6.45;1.30;;;;;;;24.43;40.17;100621.03;1873296;104;25788;-77
2022/06/11 19:37:44;;;;;;;2.85;1.70;;;;;;;24.34;40.42;100619.96;1888367;103;25803;-76
2022/06/11 19:41:19;;;;;;;3.02;1.50;;;;;;;24.27;40.65;100613.94;1893320;102;25899;-78
2022/06/11 19:45:14;;;;;;;6.67;1.95;;;;;;;24.24;40.72;100621.15;1892125;99;25769;-77
2022/06/11 19:48:55;;;;;;;4.17;1.80;;;;;;;24.20;40.93;100627.49;2017241;97;25802;-77
2022/06/11 19:52:49;;;;;;;2.60;1.50;;;;;;;24.12;41.12;100625.48;1999362;97;25817;-76
2022/06/11 19:56:21;;;;;;;5.42;1.82;;;;;;;24.05;41.18;100626.12;1966038;98;25477;-76
2022/06/11 19:59:48;;;;;;;5.15;1.80;;;;;;;23.99;41.35;100636.47;1950271;100;25910;-83
2022/06/11 20:03:35;;;;;;;2.75;1.42;;;;;;;23.95;41.56;100636.15;1956249;100;25902;-80
2022/06/11 20:07:56;;;;;;;8.18;1.95;;;;;;;23.89;41.66;100640.30;1939438;98;25872;-82
2022/06/11 20:11:29;;;;;;;5.80;2.10;;;;;;;23.81;41.88;100632.99;1916134;99;25876;-77
2022/06/11 20:15:23;;;;;;;10.30;2.27;;;;;;;23.71;42.04;100628.38;1867870;103;32960;-78
2022/06/11 20:18:58;;;;;;;3.40;1.98;;;;;;;23.69;42.24;100638.63;1865122;103;25907;-82
2022/06/11 20:22:37;;;;;;;5.87;2.35;;;;;;;23.69;42.30;100632.88;1900220;101;34910;-75
2022/06/11 20:26:04;;;;;;;6.35;1.92;;;;;;;23.66;42.57;100639.58;1920687;101;25410;-78
2022/06/11 20:29:30;;;;;;;4.95;2.55;;;;;;;23.56;42.94;100638.95;1943921;98;25896;-75
2022/06/11 20:32:55;;;;;;;5.47;2.92;;;;;;;23.45;43.32;100642.31;1966726;97;26059;-74
2022/06/11 20:36:25;;;;;;;7.03;2.15;;;;;;;23.34;43.56;100640.39;1966524;97;25731;-79
2022/06/11 20:39:57;;;;;;;8.00;2.02;;;;;;;23.26;43.90;100637.93;1937844;99;25921;-75
2022/06/11 20:43:20;;;;;;;8.28;2.50;;;;;;;23.23;44.22;100644.66;1940572;99;25755;-76
2022/06/11 20:46:52;;;;;;;5.35;2.25;;;;;;;23.18;44.43;100643.87;1956489;99;25799;-72
2022/06/11 20:50:33;;;;;;;6.50;2.25;;;;;;;23.13;44.79;100646.25;1932336;99;25772;-74
2022/06/11 20:54:37;;;;;;;7.72;3.00;;;;;;;;;;1940936;98;26144;-75
2022/06/11 20:58:07;;;;;;;6.42;2.60;;;;;;;23.01;45.05;100640.28;1942847;100;25829;-78
2022/06/11 21:01:31;;;;;;;4.42;2.80;;;;;;;22.97;45.17;100641.73;1942329;100;26177;-77
2022/06/11 21:04:57;;;;;;;8.90;2.40;;;;;;;22.92;45.45;100644.94;1958625;99;25824;-74
2022/06/11 21:12:12;;;;;;;14.90;2.87;;;;;;;22.85;45.81;100642.88;2025380;96;25737;-78
2022/06/11 21:15:32;;;;;;;4.20;2.90;;;;;;;22.81;45.89;100644.73;2053827;95;25946;-74
2022/06/11 21:18:53;;;;;;;11.88;2.72;;;;;;;22.80;46.07;100644.75;2049572;95;25771;-74
2022/06/11 21:22:33;;;;;;;9.27;2.90;;;;;;;22.78;46.15;100643.89;2053235;95;26518;-80
2022/06/11 21:25:54;;;;;;;10.03;3.40;;;;;;;22.72;46.10;100647.59;2045701;95;25943;-83
2022/06/11 21:29:16;;;;;;;8.00;3.35;;;;;;;22.69;46.33;100639.68;2048368;95;25979;-75
2022/06/11 21:32:53;;;;;;;9.08;2.85;;;;;;;22.66;46.54;100634.89;2047633;95;25854;-74
2022/06/11 21:36:21;;;;;;;6.42;2.70;;;;;;;22.60;46.71;100636.75;2033598;95;25925;-77
2022/06/11 21:39:44;;;;;;;11.25;3.75;;;;;;;22.56;46.82;100627.56;1971770;99;25580;-77
2022/06/11 21:43:06;;;;;;;8.60;3.55;;;;;;;22.48;46.84;100621.56;1962603;99;25913;-74
2022/06/11 21:46:30;;;;;;;8.08;3.47;;;;;;;22.47;46.99;100626.42;2016238;94;25703;-83
2022/06/11 21:50:20;;;;;;;8.08;3.83;;;;;;;22.63;46.91;100634.03;2185830;88;26027;-76
2022/06/11 21:53:44;;;;;;;7.25;3.55;;;;;;;22.73;46.88;100634.70;2013206;96;25843;-82
2022/06/11 21:57:35;;;;;;;6.53;3.55;;;;;;;22.78;46.89;100634.16;1997128;97;25976;-78
2022/06/11 22:01:22;;;;;;;8.18;3.55;;;;;;;22.83;46.84;100630.06;2005016;97;25785;-79
2022/06/11 22:04:55;;;;;;;12.20;3.65;;;;;;;22.83;46.82;100634.92;1989974;97;26052;-81
2022/06/11 22:09:05;;;;;;;6.08;3.60;;;;;;;22.85;46.84;100633.11;1864735;104;25839;-77
2022/06/11 22:12:35;;;;;;;;;;;;;;;22.83;46.99;100624.75;1772818;106;25878;-76
2022/06/11 22:20:01;;;;;;;7.80;3.05;;;;;;;22.85;47.11;100630.91;1813803;106;25496;-80
2022/06/11 22:23:24;;;;;;;11.10;4.33;;;;;;;22.83;47.08;100620.30;1810186;105;26088;-80
2022/06/11 22:31:29;;;;;;;7.37;3.60;;;;;;;22.78;47.20;100615.98;1838104;104;26568;-72
2022/06/11 22:34:54;;;;;;;7.78;2.70;;;;;;;22.73;47.41;100617.89;1856641;104;25814;-86
2022/06/11 22:38:21;;;;;;;12.25;3.37;;;;;;;22.73;47.46;100617.89;1863021;104;26000;-72
2022/06/11 22:41:44;;;;;;;6.33;3.27;;;;;;;22.74;47.50;100615.19;1869533;102;25927;-72
2022/06/11 22:45:26;;;;;;;9.80;3.70;;;;;;;22.75;47.59;100617.41;1894828;102;25835;-72
2022/06/11 22:48:49;;;;;;;9.88;3.62;;;;;;;22.73;47.74;100608.59;1885158;102;25879;-77
2022/06/11 22:52:28;;;;;;;5.30;3.27;;;;;;;22.71;47.79;100606.41;1889808;101;25787;-75
2022/06/11 22:55:52;;;;;;;7.70;3.22;;;;;;;22.69;47.96;100610.91;1910155;100;25976;-78
2022/06/11 22:59:25;;;;;;;7.92;3.65;;;;;;;22.69;48.05;100607.78;1943833;99;25729;-75
2022/06/11 23:02:46;;;;;;;8.33;3.25;;;;;;;22.69;48.07;100605.59;1972884;98;25655;-77
2022/06/11 23:06:12;;;;;;;6.87;3.92;;;;;;;22.65;48.14;100610.09;2051498;94;25928;-72
2022/06/11 23:09:37;;;;;;;10.10;4.35;;;;;;;22.65;48.29;100607.91;2142779;89;25822;-79
2022/06/11 23:12:59;;;;;;;10.58;3.62;;;;;;;22.65;48.26;100608.77;2155506;88;25815;-72
2022/06/11 23:16:23;;;;;;;12.53;3.60;;;;;;;22.67;48.32;100604.27;2226257;85;25840;-72
2022/06/11 23:19:43;;;;;;;11.10;3.40;;;;;;;22.66;48.38;100601.66;2286617;85;25661;-72
2022/06/11 23:23:09;;;;;;;6.27;3.23;;;;;;;22.60;48.48;100598.69;2288151;85;25742;-71
2022/06/11 23:26:51;;;;;;;14.98;4.20;;;;;;;22.52;48.68;100606.84;2245799;87;25597;-72
2022/06/11 23:30:23;;;;;;;13.90;5.15;;;;;;;22.36;48.86;100602.30;2285317;85;25599;-71
2022/06/11 23:33:50;;;;;;;9.48;3.87;;;;;;;22.13;49.22;100601.88;2289228;84;25555;-73
2022/06/11 23:37:15;;;;;;;12.70;4.20;;;;;;;22.04;49.40;100602.05;2290025;85;25679;-75
2022/06/11 23:40:56;;;;;;;15.65;4.15;;;;;;;22.02;49.48;100600.77;2280770;85;25620;-75
2022/06/11 23:45:37;;;;;;;9.43;3.95;;;;;;;22.02;49.56;100591.47;2286008;85;25703;-75
2022/06/11 23:48:13;;;;;;;12.60;4.53;;;;;;;22.00;49.53;100590.62;2287166;85;25794;-73
2022/06/11 23:51:34;;;;;;;14.43;4.78;;;;;;;21.98;49.56;100598.22;2223891;87;25799;-71
2022/06/11 23:55:05;;;;;;;11.30;4.97;;;;;;;21.98;49.60;100591.58;2218233;87;25490;-75
2022/06/11 23:58:28;;;;;;;8.40;5.42;;;;;;;21.88;49.63;100593.08;2244472;82;25795;-73
